Time;durP1;ratioP1;P1;durP2;ratioP2;P2;SDS_P1;SDS_P2;PMS_P1;PMS_P2;Temp;Humidity;BMP_temperature;BMP_pressure;BME280_temperature;BME280_humidity;BME280_pressure;Samples;Min_cycle;Max_cycle;Signal;HPM_P1;HPM_P2
2023/02/01 00:02:23;;;;;;;15.10;9.73;;;7.70;99.90;;;;;;5055226;28;20485;-90
2023/02/01 00:04:49;;;;;;;14.63;10.00;;;7.60;99.90;;;;;;5055806;28;20489;-90
2023/02/01 00:07:14;;;;;;;14.43;9.45;;;7.40;99.90;;;;;;5056240;28;20028;-89
2023/02/01 00:09:40;;;;;;;18.00;11.10;;;7.40;99.90;;;;;;5038187;28;20025;-89
2023/02/01 00:12:06;;;;;;;21.85;11.85;;;7.40;99.90;;;;;;5055748;28;20616;-90
2023/02/01 00:14:38;;;;;;;24.45;12.07;;;7.20;99.90;;;;;;5055862;28;20035;-89
2023/02/01 00:17:04;;;;;;;21.33;12.13;;;7.20;99.90;;;;;;5055503;28;20028;-89
2023/02/01 00:19:30;;;;;;;20.08;11.57;;;7.30;99.90;;;;;;5055595;28;20035;-90
2023/02/01 00:21:56;;;;;;;21.17;12.00;;;7.40;99.90;;;;;;5055487;28;20389;-89
2023/02/01 00:24:21;;;;;;;23.58;12.75;;;7.30;99.90;;;;;;5054716;28;20025;-89
2023/02/01 00:26:48;;;;;;;22.08;12.23;;;7.50;99.90;;;;;;5037765;28;20075;-90
2023/02/01 00:29:18;;;;;;;20.88;12.65;;;7.50;99.90;;;;;;5037818;28;20025;-90
2023/02/01 00:31:45;;;;;;;87.47;37.60;;;7.40;99.90;;;;;;5054448;28;20523;-90
2023/02/01 00:34:16;;;;;;;94.38;38.90;;;7.30;99.90;;;;;;5037739;28;20079;-89
2023/02/01 00:36:43;;;;;;;67.60;30.95;;;7.40;99.90;;;;;;5055108;28;20087;-89
2023/02/01 00:39:09;;;;;;;48.25;22.23;;;7.30;99.90;;;;;;5037516;28;20492;-90
2023/02/01 00:41:35;;;;;;;28.95;15.77;;;7.40;99.90;;;;;;5055367;28;20032;-90
2023/02/01 00:44:01;;;;;;;20.08;12.43;;;7.60;99.90;;;;;;5055357;28;20024;-89
2023/02/01 00:46:27;;;;;;;19.98;12.23;;;7.60;99.90;;;;;;5055353;28;20028;-90
2023/02/01 00:48:53;;;;;;;17.08;10.80;;;7.50;99.90;;;;;;5055193;28;20473;-89
2023/02/01 00:51:22;;;;;;;15.38;10.25;;;7.50;99.90;;;;;;5054906;28;20036;-89
2023/02/01 00:53:48;;;;;;;15.07;10.25;;;7.40;99.90;;;;;;5055392;28;20025;-89
2023/02/01 00:56:14;;;;;;;16.45;10.80;;;7.40;99.90;;;;;;5054792;28;20047;-90
2023/02/01 00:58:39;;;;;;;13.85;10.27;;;7.50;99.90;;;;;;5054968;28;20054;-89
2023/02/01 01:01:11;;;;;;;13.27;9.75;;;7.20;99.90;;;;;;5036781;28;20025;-90
2023/02/01 01:03:40;;;;;;;18.30;9.75;;;7.10;99.90;;;;;;5054736;28;20028;-90
2023/02/01 01:06:09;;;;;;;13.48;9.70;;;7.30;99.90;;;;;;5054890;28;20065;-90
2023/02/01 01:08:35;;;;;;;14.93;10.07;;;7.50;99.90;;;;;;5036938;28;20032;-90
2023/02/01 01:11:16;;;;;;;16.45;11.50;;;7.40;99.90;;;;;;5036976;28;20036;-90
2023/02/01 01:13:42;;;;;;;20.27;13.02;;;7.20;99.90;;;;;;5036155;28;20094;-89
2023/02/01 01:16:10;;;;;;;15.95;11.25;;;7.20;99.90;;;;;;5054517;28;20029;-89
2023/02/01 01:18:35;;;;;;;18.30;11.80;;;7.20;99.90;;;;;;5036607;28;20029;-90
2023/02/01 01:21:03;;;;;;;18.63;11.48;;;7.00;99.90;;;;;;5054740;28;20455;-90
2023/02/01 01:23:29;;;;;;;19.55;12.73;;;7.00;99.90;;;;;;5054635;28;20024;-90
2023/02/01 01:25:55;;;;;;;16.25;11.20;;;7.00;99.90;;;;;;5036804;28;20112;-90
2023/02/01 01:28:21;;;;;;;18.75;11.25;;;7.10;99.90;;;;;;5053829;28;20477;-89
2023/02/01 01:30:47;;;;;;;20.80;12.82;;;7.00;99.90;;;;;;5054087;28;20102;-89
2023/02/01 01:33:12;;;;;;;22.17;12.57;;;7.00;99.90;;;;;;5054260;28;20126;-90
2023/02/01 01:35:38;;;;;;;22.27;12.23;;;6.90;99.90;;;;;;5053843;28;20060;-89
2023/02/01 01:38:04;;;;;;;23.88;12.60;;;6.80;99.90;;;;;;5053299;28;20088;-90
2023/02/01 01:40:30;;;;;;;16.65;10.82;;;6.80;99.90;;;;;;5054090;28;20439;-90
2023/02/01 01:42:57;;;;;;;19.90;11.50;;;6.90;99.90;;;;;;5035752;28;20025;-90
2023/02/01 01:45:31;;;;;;;15.30;10.57;;;6.90;99.90;;;;;;5053608;28;20082;-89
2023/02/01 01:48:13;;;;;;;17.83;10.30;;;6.80;99.90;;;;;;5036150;28;20033;-90
2023/02/01 01:50:50;;;;;;;15.18;9.98;;;6.90;99.90;;;;;;5036269;28;20032;-90
2023/02/01 01:53:20;;;;;;;17.80;11.30;;;6.90;99.90;;;;;;5035862;28;20527;-90
2023/02/01 01:55:49;;;;;;;17.70;10.80;;;6.90;99.90;;;;;;5054075;28;20029;-90
2023/02/01 01:58:18;;;;;;;21.60;12.50;;;7.00;99.90;;;;;;5035698;28;20086;-89
2023/02/01 02:00:46;;;;;;;18.52;12.10;;;6.90;99.90;;;;;;5053636;28;20025;-90
2023/02/01 02:03:14;;;;;;;18.80;12.13;;;6.90;99.90;;;;;;5053718;28;20497;-89
2023/02/01 02:05:41;;;;;;;17.20;12.13;;;6.80;99.90;;;;;;5035719;28;20412;-89
2023/02/01 02:08:06;;;;;;;20.67;13.35;;;6.60;99.90;;;;;;5053969;28;20083;-89
2023/02/01 02:13:18;;;;;;;16.85;11.80;;;6.70;99.90;;;;;;5053566;28;20068;-89
2023/02/01 02:16:15;;;;;;;16.27;11.30;;;6.90;99.90;;;;;;5053374;28;20032;-89
2023/02/01 02:19:05;;;;;;;16.90;11.60;;;6.90;99.90;;;;;;5053609;28;20025;-89
2023/02/01 02:21:56;;;;;;;16.15;11.43;;;6.80;99.90;;;;;;5053492;28;20031;-89
2023/02/01 02:24:44;;;;;;;15.95;11.82;;;6.70;99.90;;;;;;5035866;28;20039;-88
2023/02/01 02:27:42;;;;;;;16.17;10.93;;;6.70;99.90;;;;;;5053172;28;20033;-90
2023/02/01 02:30:38;;;;;;;13.40;10.32;;;6.70;99.90;;;;;;4975648;28;20136;-89
2023/02/01 02:33:27;;;;;;;12.57;10.32;;;6.70;99.90;;;;;;4991703;28;20745;-90
2023/02/01 02:36:16;;;;;;;18.17;11.27;;;6.60;99.90;;;;;;4992143;28;20061;-90
2023/02/01 02:38:46;;;;;;;15.82;11.48;;;6.60;99.90;;;;;;4992126;28;20498;-89
2023/02/01 02:47:26;;;;;;;16.40;10.95;;;6.50;99.90;;;;;;4992220;28;20082;-89
2023/02/01 03:04:23;;;;;;;13.75;10.15;;;6.50;99.90;;;;;;4976435;28;20066;-89
2023/02/01 03:06:49;;;;;;;13.70;10.35;;;6.50;99.90;;;;;;5003143;28;20045;-90
2023/02/01 03:09:37;;;;;;;11.95;8.98;;;6.60;99.90;;;;;;5019298;28;20363;-89
2023/02/01 03:15:01;;;;;;;11.73;9.63;;;6.40;99.90;;;;;;5037092;28;20445;-89
2023/02/01 03:17:32;;;;;;;12.30;9.38;;;6.50;99.90;;;;;;5036601;28;20466;-89
2023/02/01 03:20:01;;;;;;;12.02;9.23;;;6.60;99.90;;;;;;5036593;28;20029;-89
2023/02/01 03:22:31;;;;;;;12.23;9.48;;;6.70;99.90;;;;;;5036931;28;20034;-90
2023/02/01 03:25:05;;;;;;;13.40;9.30;;;6.80;99.90;;;;;;5036435;28;20021;-89
2023/02/01 03:27:37;;;;;;;13.00;9.73;;;6.70;99.90;;;;;;5019012;28;20485;-89
2023/02/01 03:30:17;;;;;;;13.52;9.85;;;6.80;99.90;;;;;;5018943;28;20022;-89
2023/02/01 03:32:59;;;;;;;13.27;9.82;;;6.70;99.90;;;;;;5036323;28;20053;-89
2023/02/01 03:36:00;;;;;;;15.10;9.68;;;6.60;99.90;;;;;;5036474;28;20029;-89
2023/02/01 03:38:50;;;;;;;11.70;9.43;;;6.70;99.90;;;;;;5028555;28;20057;-88
2023/02/01 03:41:25;;;;;;;12.45;9.50;;;7.10;99.90;;;;;;5018750;28;20029;-89
2023/02/01 03:43:50;;;;;;;11.88;9.40;;;6.70;99.90;;;;;;5035231;28;20029;-91
2023/02/01 03:46:23;;;;;;;12.07;9.10;;;6.50;99.90;;;;;;5036395;28;20538;-89
2023/02/01 03:48:51;;;;;;;13.18;9.15;;;6.60;99.90;;;;;;5036390;28;20128;-89
2023/02/01 03:51:19;;;;;;;11.57;8.98;;;6.50;99.90;;;;;;5018675;28;20120;-90
2023/02/01 03:53:48;;;;;;;12.90;9.20;;;6.50;99.90;;;;;;5037416;28;20428;-90
2023/02/01 03:56:17;;;;;;;12.63;8.63;;;6.50;99.90;;;;;;5055886;28;20485;-90
2023/02/01 03:58:57;;;;;;;11.00;8.75;;;6.50;99.90;;;;;;5055702;28;20033;-89
2023/02/01 04:01:23;;;;;;;13.30;9.30;;;6.50;99.90;;;;;;5055099;28;20029;-89
2023/02/01 04:03:51;;;;;;;13.23;9.20;;;6.40;99.90;;;;;;5038327;28;20036;-89
2023/02/01 04:06:16;;;;;;;12.20;8.63;;;6.50;99.90;;;;;;5055879;28;20052;-89
2023/02/01 04:08:42;;;;;;;12.48;8.68;;;6.60;99.90;;;;;;5037497;28;20029;-89
2023/02/01 04:11:08;;;;;;;12.82;8.32;;;6.60;99.90;;;;;;5038060;28;20040;-90
2023/02/01 04:13:33;;;;;;;13.20;8.55;;;6.60;99.90;;;;;;5055959;28;20040;-90
2023/02/01 04:15:59;;;;;;;12.90;9.25;;;6.60;99.90;;;;;;5038467;28;20033;-89
2023/02/01 04:18:25;;;;;;;11.60;9.00;;;6.50;99.90;;;;;;5055753;28;20025;-90
2023/02/01 04:20:50;;;;;;;11.68;8.45;;;6.70;99.90;;;;;;5055591;28;20053;-89
2023/02/01 04:23:16;;;;;;;11.63;8.60;;;6.60;99.90;;;;;;5055333;28;20021;-90
2023/02/01 04:25:42;;;;;;;13.18;8.93;;;6.60;99.90;;;;;;5037758;28;20401;-89
2023/02/01 04:28:07;;;;;;;10.85;8.70;;;6.80;99.90;;;;;;5055740;28;20024;-89
2023/02/01 04:30:33;;;;;;;12.55;9.38;;;6.70;99.90;;;;;;5055604;28;20067;-89
2023/02/01 04:32:59;;;;;;;15.10;10.20;;;6.60;99.90;;;;;;5055133;28;20052;-88
2023/02/01 04:35:24;;;;;;;16.35;10.43;;;6.50;99.90;;;;;;5055680;28;20413;-90
2023/02/01 04:37:50;;;;;;;14.95;10.90;;;6.50;99.90;;;;;;5055058;28;20028;-89
2023/02/01 04:40:15;;;;;;;14.38;9.88;;;6.60;99.90;;;;;;5054964;28;20116;-92
2023/02/01 04:42:41;;;;;;;14.23;9.88;;;6.60;99.90;;;;;;5055497;28;20029;-90
2023/02/01 04:45:08;;;;;;;13.82;9.65;;;6.60;99.90;;;;;;5037564;28;20375;-89
2023/02/01 04:47:34;;;;;;;15.35;9.85;;;6.60;99.90;;;;;;5055400;28;20018;-89
2023/02/01 04:50:00;;;;;;;13.80;9.98;;;6.80;99.90;;;;;;5054970;28;20036;-90
2023/02/01 04:52:27;;;;;;;14.07;9.75;;;6.70;99.90;;;;;;5054328;28;20029;-88
2023/02/01 04:54:54;;;;;;;15.52;9.60;;;6.70;99.90;;;;;;5054837;28;20032;-90
2023/02/01 04:57:20;;;;;;;12.00;9.30;;;6.70;99.90;;;;;;5055054;28;20489;-89
2023/02/01 04:59:45;;;;;;;13.35;9.50;;;6.60;99.90;;;;;;5037070;28;20021;-89
2023/02/01 05:02:11;;;;;;;15.55;10.52;;;6.60;99.90;;;;;;5037036;28;20075;-89
2023/02/01 05:04:36;;;;;;;14.70;9.70;;;6.60;99.90;;;;;;5036876;28;20025;-89
2023/02/01 05:07:02;;;;;;;13.70;9.70;;;6.70;99.90;;;;;;5054384;28;20032;-89
2023/02/01 05:09:28;;;;;;;13.95;10.18;;;6.60;99.90;;;;;;5054964;28;20053;-89
2023/02/01 05:14:37;;;;;;;15.57;9.73;;;6.70;99.90;;;;;;5055100;28;20448;-89
2023/02/01 05:17:03;;;;;;;13.55;9.65;;;6.70;99.90;;;;;;5054216;28;20029;-89
2023/02/01 05:19:29;;;;;;;12.98;9.02;;;6.60;99.90;;;;;;5036430;28;20032;-89
2023/02/01 05:21:54;;;;;;;11.48;8.88;;;6.60;99.90;;;;;;5036260;28;20036;-88
2023/02/01 05:24:20;;;;;;;13.98;9.07;;;6.60;99.90;;;;;;5054632;28;20037;-89
2023/02/01 05:26:47;;;;;;;11.07;9.35;;;6.70;99.90;;;;;;5036667;28;20082;-90
2023/02/01 05:29:14;;;;;;;13.25;9.88;;;6.60;99.90;;;;;;5053653;28;20029;-91
2023/02/01 05:31:40;;;;;;;13.82;9.55;;;6.70;99.90;;;;;;5036476;28;20079;-89
2023/02/01 05:34:06;;;;;;;13.63;9.43;;;6.50;99.90;;;;;;5036552;28;20032;-89
2023/02/01 05:36:32;;;;;;;13.55;9.27;;;6.50;99.90;;;;;;5054282;28;20029;-89
2023/02/01 05:38:57;;;;;;;12.02;9.07;;;6.60;99.90;;;;;;5054200;28;20029;-90
2023/02/01 05:41:23;;;;;;;14.57;9.93;;;6.60;99.90;;;;;;5036382;28;20474;-89
2023/02/01 05:43:49;;;;;;;13.60;9.27;;;6.70;99.90;;;;;;5053748;28;20025;-89
2023/02/01 05:46:15;;;;;;;13.27;9.57;;;6.60;99.90;;;;;;5036392;28;20021;-89
2023/02/01 05:48:41;;;;;;;15.15;9.65;;;6.70;99.90;;;;;;5054046;28;20428;-90
2023/02/01 05:51:07;;;;;;;13.43;9.45;;;6.70;99.90;;;;;;5053552;28;20033;-90
2023/02/01 05:53:33;;;;;;;14.68;9.60;;;6.70;99.90;;;;;;5053760;28;20092;-90
2023/02/01 05:55:58;;;;;;;13.15;9.52;;;6.70;99.90;;;;;;5053808;28;20355;-89
2023/02/01 05:58:24;;;;;;;15.38;10.30;;;6.70;99.90;;;;;;5035988;28;20094;-89
2023/02/01 06:00:50;;;;;;;12.20;9.05;;;6.70;99.90;;;;;;5035883;28;20036;-89
2023/02/01 06:03:17;;;;;;;13.52;8.98;;;6.60;99.90;;;;;;5052204;28;20028;-89
2023/02/01 06:05:46;;;;;;;12.85;9.20;;;6.70;99.90;;;;;;5053559;28;20020;-89
2023/02/01 06:08:13;;;;;;;13.38;8.88;;;6.80;99.90;;;;;;5035474;28;20025;-90
2023/02/01 06:10:39;;;;;;;13.25;9.63;;;6.70;99.90;;;;;;5034896;28;20505;-91
2023/02/01 06:13:04;;;;;;;13.30;8.88;;;6.80;99.90;;;;;;5053518;28;20439;-88
2023/02/01 06:15:32;;;;;;;11.93;9.40;;;6.70;99.90;;;;;;5035172;28;20017;-90
2023/02/01 06:17:57;;;;;;;11.82;8.82;;;6.60;99.90;;;;;;5035027;28;20033;-89
2023/02/01 06:20:23;;;;;;;12.68;8.90;;;6.70;99.90;;;;;;5035259;28;20029;-89
2023/02/01 06:22:49;;;;;;;13.73;9.80;;;6.70;99.90;;;;;;5052110;28;20033;-89
2023/02/01 06:25:14;;;;;;;15.93;10.32;;;6.70;99.90;;;;;;5035421;28;20109;-88
2023/02/01 06:27:40;;;;;;;14.05;11.02;;;6.70;99.90;;;;;;5052898;28;20040;-89
2023/02/01 06:30:07;;;;;;;14.45;10.20;;;6.60;99.90;;;;;;5052602;28;20025;-89
2023/02/01 06:32:32;;;;;;;13.95;9.82;;;6.60;99.90;;;;;;5051698;28;20063;-89
2023/02/01 06:34:59;;;;;;;13.07;9.63;;;6.70;99.90;;;;;;5052584;28;20456;-89
2023/02/01 06:37:25;;;;;;;13.98;9.80;;;6.70;99.90;;;;;;5052495;28;20084;-89
2023/02/01 06:39:51;;;;;;;12.88;10.10;;;6.70;99.90;;;;;;5034542;28;20370;-89
2023/02/01 06:42:17;;;;;;;13.85;10.30;;;6.80;99.90;;;;;;5034377;28;20147;-88
2023/02/01 06:44:43;;;;;;;14.65;10.57;;;6.80;99.90;;;;;;5052475;28;20377;-88
2023/02/01 06:47:08;;;;;;;15.65;10.63;;;6.90;99.90;;;;;;5051691;28;20117;-89
2023/02/01 06:49:34;;;;;;;17.27;11.95;;;6.70;99.90;;;;;;5034553;28;20561;-89
2023/02/01 06:52:00;;;;;;;14.63;11.50;;;6.70;99.90;;;;;;5052629;28;20033;-89
2023/02/01 06:54:26;;;;;;;15.73;11.13;;;6.70;99.90;;;;;;5051795;28;20044;-88
2023/02/01 06:56:52;;;;;;;16.98;11.95;;;6.70;99.90;;;;;;5034658;28;20478;-89
2023/02/01 06:59:18;;;;;;;18.70;12.88;;;6.80;99.90;;;;;;5034382;28;20044;-89
2023/02/01 07:01:43;;;;;;;20.45;14.05;;;6.60;99.90;;;;;;5051813;28;20574;-89
2023/02/01 07:04:11;;;;;;;18.63;13.07;;;6.70;99.90;;;;;;5034199;28;20112;-89
2023/02/01 07:06:38;;;;;;;19.95;12.82;;;6.60;99.90;;;;;;5052519;28;20048;-90
2023/02/01 07:09:03;;;;;;;17.33;11.50;;;6.70;99.90;;;;;;5052289;28;20042;-88
2023/02/01 07:11:30;;;;;;;17.00;11.45;;;6.70;99.90;;;;;;5051890;28;20033;-89
2023/02/01 07:13:56;;;;;;;18.48;11.48;;;6.80;99.90;;;;;;5052075;28;20037;-89
2023/02/01 07:16:21;;;;;;;16.15;11.98;;;6.60;99.90;;;;;;5033619;28;20083;-89
2023/02/01 07:18:50;;;;;;;16.08;11.68;;;6.70;99.90;;;;;;5052247;28;20040;-89
2023/02/01 07:21:15;;;;;;;18.58;12.30;;;6.90;99.90;;;;;;5052141;28;20504;-88
2023/02/01 07:23:41;;;;;;;17.85;11.85;;;6.90;99.90;;;;;;5052592;28;20033;-89
2023/02/01 07:26:09;;;;;;;14.95;11.30;;;6.90;99.90;;;;;;5051054;28;20058;-89
2023/02/01 07:28:36;;;;;;;17.05;12.88;;;7.00;99.90;;;;;;5051827;28;20049;-90
2023/02/01 07:31:06;;;;;;;23.20;16.98;;;6.80;99.90;;;;;;5051748;28;20025;-89
2023/02/01 07:33:32;;;;;;;65.10;43.45;;;6.90;99.90;;;;;;5050794;28;20053;-89
2023/02/01 07:36:00;;;;;;;21.40;13.98;;;6.90;99.90;;;;;;5038563;28;20021;-87
2023/02/01 07:38:26;;;;;;;20.40;14.98;;;6.90;99.90;;;;;;5037790;28;20488;-89
2023/02/01 07:40:59;;;;;;;82.75;50.70;;;7.30;99.90;;;;;;5038054;28;20477;-88
2023/02/01 07:43:26;;;;;;;20.80;14.55;;;7.30;99.90;;;;;;5056372;28;20020;-85
2023/02/01 07:45:53;;;;;;;19.08;13.63;;;7.20;99.90;;;;;;5055092;28;20029;-85
2023/02/01 07:48:20;;;;;;;18.08;13.93;;;7.40;99.90;;;;;;5038882;28;20044;-91
2023/02/01 07:50:45;;;;;;;18.02;14.30;;;7.30;99.90;;;;;;5039341;28;20040;-90
2023/02/01 07:53:11;;;;;;;18.02;12.55;;;7.30;99.90;;;;;;5054777;28;20037;-89
2023/02/01 07:55:40;;;;;;;16.35;12.75;;;7.20;99.90;;;;;;5056248;28;20021;-90
2023/02/01 07:58:06;;;;;;;20.00;12.18;;;7.00;99.90;;;;;;5056240;28;20036;-88
2023/02/01 08:01:32;;;;;;;21.05;13.70;;;7.20;99.90;;;;;;5036889;28;20481;-88
2023/02/01 08:03:27;;;;;;;21.58;14.50;;;6.90;99.90;;;;;;5042646;28;20112;-90
2023/02/01 08:05:55;;;;;;;24.73;15.70;;;7.10;99.90;;;;;;5054192;28;20135;-91
2023/02/01 08:08:22;;;;;;;21.75;14.95;;;6.60;99.90;;;;;;5037555;28;20511;-88
2023/02/01 08:10:47;;;;;;;24.92;16.63;;;6.60;99.90;;;;;;5037144;28;20029;-88
2023/02/01 08:13:13;;;;;;;21.67;14.88;;;6.60;99.90;;;;;;5053621;28;20044;-89
2023/02/01 08:15:39;;;;;;;20.83;14.18;;;6.70;99.90;;;;;;5053385;28;20053;-88
2023/02/01 08:18:05;;;;;;;23.13;15.43;;;6.80;99.90;;;;;;5036997;28;20047;-89
2023/02/01 08:20:31;;;;;;;22.20;14.50;;;7.10;99.90;;;;;;5037343;28;20448;-88
2023/02/01 08:22:57;;;;;;;23.48;14.98;;;7.00;99.90;;;;;;5054826;28;20017;-88
2023/02/01 08:25:23;;;;;;;20.33;14.95;;;8.00;99.90;;;;;;5054740;28;20477;-88
2023/02/01 08:27:50;;;;;;;18.58;13.02;;;8.80;99.90;;;;;;5054606;28;20063;-89
2023/02/01 08:30:16;;;;;;;16.05;11.77;;;11.90;99.90;;;;;;5054385;28;20370;-88
2023/02/01 08:32:41;;;;;;;18.60;12.73;;;14.70;99.90;;;;;;5053130;28;20056;-88
2023/02/01 08:35:08;;;;;;;17.08;12.32;;;16.20;99.90;;;;;;5053315;28;20021;-88
2023/02/01 08:37:33;;;;;;;17.60;12.52;;;17.80;99.90;;;;;;5054641;28;20501;-88
2023/02/01 08:39:59;;;;;;;15.38;11.95;;;18.60;99.90;;;;;;5054890;28;20063;-88
2023/02/01 08:45:09;;;;;;;17.77;13.55;;;12.90;99.90;;;;;;5054294;28;20078;-88
2023/02/01 08:47:35;;;;;;;17.38;13.43;;;10.40;99.90;;;;;;5036153;28;20033;-88
2023/02/01 08:50:01;;;;;;;18.05;14.52;;;9.10;99.90;;;;;;5054179;28;20096;-88
2023/02/01 08:52:27;;;;;;;15.63;13.88;;;8.50;99.90;;;;;;5036545;28;20033;-88
2023/02/01 08:54:52;;;;;;;18.55;12.90;;;8.30;99.90;;;;;;5053706;28;20052;-89
2023/02/01 08:57:18;;;;;;;15.43;12.68;;;7.90;99.90;;;;;;5036406;28;20033;-89
2023/02/01 08:59:44;;;;;;;15.85;12.52;;;7.70;99.90;;;;;;5054178;28;20021;-88
2023/02/01 09:02:15;;;;;;;14.50;12.20;;;7.90;99.90;;;;;;5053910;28;20092;-89
2023/02/01 09:04:41;;;;;;;15.80;12.02;;;7.90;99.90;;;;;;5036267;28;20488;-88
2023/02/01 09:07:09;;;;;;;16.33;12.68;;;7.60;99.90;;;;;;5036428;28;20635;-88
2023/02/01 09:09:35;;;;;;;15.18;12.30;;;7.70;99.90;;;;;;5053821;28;20393;-88
2023/02/01 09:12:02;;;;;;;18.08;12.02;;;7.70;99.90;;;;;;5035503;28;20036;-89
2023/02/01 09:14:27;;;;;;;13.52;11.95;;;8.00;99.90;;;;;;5053696;28;20103;-89
2023/02/01 09:16:53;;;;;;;17.90;12.50;;;7.90;99.90;;;;;;5036630;28;20060;-89
2023/02/01 09:19:19;;;;;;;20.42;12.65;;;7.80;99.90;;;;;;5054052;28;20029;-90
2023/02/01 09:21:44;;;;;;;16.80;11.60;;;7.90;99.90;;;;;;5053615;28;20025;-89
2023/02/01 09:24:11;;;;;;;15.15;11.63;;;8.10;99.90;;;;;;5053642;28;20029;-89
2023/02/01 09:26:37;;;;;;;15.40;11.07;;;8.10;99.90;;;;;;5035489;28;20115;-89
2023/02/01 09:29:06;;;;;;;15.40;10.90;;;8.40;99.90;;;;;;5053745;28;20025;-89
2023/02/01 09:31:31;;;;;;;14.05;11.25;;;8.40;99.90;;;;;;5053381;28;20045;-88
2023/02/01 09:33:57;;;;;;;16.40;11.82;;;8.20;99.90;;;;;;5053308;28;20408;-88
2023/02/01 09:36:23;;;;;;;16.60;12.23;;;8.40;99.90;;;;;;5052330;28;20029;-89
2023/02/01 09:38:51;;;;;;;16.98;13.52;;;8.40;99.90;;;;;;5053331;28;20057;-88
2023/02/01 09:41:51;;;;;;;19.63;12.88;;;8.20;99.90;;;;;;5052894;28;20028;-89
2023/02/01 09:44:53;;;;;;;14.27;10.82;;;8.20;99.90;;;;;;5024652;28;20039;-88
2023/02/01 09:47:22;;;;;;;13.65;10.10;;;8.20;99.90;;;;;;5052281;28;20058;-88
2023/02/01 09:50:21;;;;;;;17.45;12.68;;;8.20;99.90;;;;;;5035130;28;20048;-88
2023/02/01 09:53:12;;;;;;;14.27;10.18;;;8.10;99.90;;;;;;5047956;28;20041;-88
2023/02/01 09:55:49;;;;;;;15.95;10.25;;;8.00;99.90;;;;;;5052572;28;20017;-89
2023/02/01 09:58:15;;;;;;;13.77;9.98;;;8.10;99.90;;;;;;5034653;28;20025;-89
2023/02/01 10:00:55;;;;;;;14.15;10.32;;;8.00;99.90;;;;;;5034821;28;20071;-88
2023/02/01 10:03:23;;;;;;;14.45;9.93;;;7.80;99.90;;;;;;5034816;28;20029;-88
2023/02/01 10:06:10;;;;;;;13.55;10.25;;;7.70;99.90;;;;;;5035236;28;20025;-89
2023/02/01 10:08:46;;;;;;;14.32;9.52;;;8.10;99.90;;;;;;5052963;28;20056;-88
2023/02/01 10:11:48;;;;;;;13.63;9.43;;;8.20;99.90;;;;;;5034443;28;20025;-88
2023/02/01 10:14:35;;;;;;;12.50;9.15;;;8.30;99.90;;;;;;5052798;28;20036;-88
2023/02/01 10:17:38;;;;;;;13.20;9.30;;;8.10;99.90;;;;;;5035097;28;20028;-89
2023/02/01 10:20:23;;;;;;;14.90;9.40;;;8.20;99.90;;;;;;5052735;28;20025;-89
2023/02/01 10:23:07;;;;;;;13.55;9.40;;;8.30;99.90;;;;;;5052548;28;20116;-88
2023/02/01 10:25:56;;;;;;;12.23;9.18;;;8.60;99.90;;;;;;5045776;28;20086;-88
2023/02/01 10:28:24;;;;;;;11.63;9.10;;;8.70;99.90;;;;;;5045251;28;20440;-88
2023/02/01 10:30:54;;;;;;;14.25;10.65;;;8.50;99.90;;;;;;5052534;28;20151;-89
2023/02/01 10:33:41;;;;;;;14.88;9.75;;;8.50;99.90;;;;;;5052363;28;20391;-88
2023/02/01 10:36:45;;;;;;;15.68;10.05;;;8.40;99.90;;;;;;5034840;28;20025;-89
2023/02/01 10:39:14;;;;;;;14.73;9.20;;;8.40;99.90;;;;;;4955273;28;20039;-88
2023/02/01 10:41:42;;;;;;;14.40;9.40;;;8.50;99.90;;;;;;4971565;28;20038;-89
2023/02/01 10:44:13;;;;;;;13.13;9.40;;;8.60;99.90;;;;;;4971385;28;20490;-89
2023/02/01 10:46:40;;;;;;;14.32;9.75;;;8.40;99.90;;;;;;4955467;28;20027;-89
2023/02/01 10:49:13;;;;;;;67.88;31.65;;;8.30;99.90;;;;;;4955871;28;20503;-89
2023/02/01 10:51:58;;;;;;;12.43;8.95;;;8.30;99.90;;;;;;4972030;28;20074;-88
2023/02/01 10:54:40;;;;;;;18.52;11.50;;;8.40;99.90;;;;;;4954656;28;20531;-89
2023/02/01 10:57:21;;;;;;;17.17;9.75;;;8.60;99.90;;;;;;4971601;28;20039;-88
2023/02/01 10:59:47;;;;;;;12.32;8.43;;;8.60;99.90;;;;;;4971417;28;20042;-89
2023/02/01 11:02:34;;;;;;;11.38;7.70;;;8.70;99.90;;;;;;4955696;28;20035;-89
2023/02/01 11:05:03;;;;;;;13.68;8.38;;;9.00;99.90;;;;;;4971508;28;20023;-89
2023/02/01 11:07:30;;;;;;;13.23;8.10;;;9.20;99.90;;;;;;4971254;28;20146;-88
2023/02/01 11:09:57;;;;;;;10.90;7.03;;;9.10;99.90;;;;;;4973783;28;20514;-88
2023/02/01 11:12:37;;;;;;;14.68;7.18;;;9.00;99.90;;;;;;4976421;28;20514;-88
2023/02/01 11:15:13;;;;;;;13.38;6.80;;;9.20;99.90;;;;;;4985030;28;20030;-89
2023/02/01 11:17:43;;;;;;;11.88;6.50;;;9.30;99.90;;;;;;5056001;28;20462;-89
2023/02/01 11:20:17;;;;;;;10.13;5.35;;;9.70;99.90;;;;;;5056426;28;20048;-88
2023/02/01 11:22:48;;;;;;;29.42;17.17;;;9.90;99.90;;;;;;5037906;28;20032;-89
2023/02/01 11:25:17;;;;;;;9.35;5.25;;;9.60;99.90;;;;;;5056241;28;20033;-89
2023/02/01 11:27:43;;;;;;;8.10;4.50;;;9.90;99.90;;;;;;5038206;28;20021;-89
2023/02/01 11:30:22;;;;;;;11.52;6.88;;;9.80;99.90;;;;;;5037899;28;20038;-88
2023/02/01 11:32:49;;;;;;;9.95;5.22;;;9.90;99.90;;;;;;5037837;28;20045;-89
2023/02/01 11:35:20;;;;;;;9.13;5.20;;;10.10;99.90;;;;;;5055921;28;20437;-88
2023/02/01 11:37:54;;;;;;;8.55;4.28;;;10.40;99.90;;;;;;5037372;28;20050;-89
2023/02/01 11:40:21;;;;;;;24.77;20.70;;;10.80;99.90;;;;;;5037848;28;20020;-89
2023/02/01 11:43:01;;;;;;;8.43;4.60;;;11.30;99.90;;;;;;5055576;28;20079;-89
2023/02/01 11:45:28;;;;;;;9.55;6.13;;;11.30;99.90;;;;;;5055734;28;20504;-89
2023/02/01 11:47:55;;;;;;;8.57;5.47;;;11.10;99.90;;;;;;5037837;28;20024;-89
2023/02/01 11:50:44;;;;;;;8.52;4.97;;;11.10;99.90;;;;;;5038326;28;20519;-89
2023/02/01 11:53:19;;;;;;;6.03;4.20;;;11.50;99.90;;;;;;5054914;28;20503;-89
2023/02/01 11:56:01;;;;;;;6.47;4.18;;;11.90;99.90;;;;;;5055587;28;20021;-89
2023/02/01 11:58:55;;;;;;;6.63;5.20;;;11.20;99.90;;;;;;5056056;28;20040;-89
2023/02/01 12:01:26;;;;;;;9.90;4.70;;;10.20;99.90;;;;;;5055781;28;20044;-89
2023/02/01 12:04:10;;;;;;;6.40;4.32;;;10.50;99.90;;;;;;5037807;28;20029;-89
2023/02/01 12:06:49;;;;;;;5.95;4.30;;;10.20;99.90;;;;;;5054869;28;20025;-89
2023/02/01 12:09:25;;;;;;;10.05;6.28;;;10.00;99.90;;;;;;5056449;28;20162;-89
2023/02/01 12:12:16;;;;;;;9.52;6.70;;;9.80;99.90;;;;;;5055190;28;20040;-88
2023/02/01 12:14:54;;;;;;;9.65;4.53;;;9.80;99.90;;;;;;5044856;28;20064;-89
2023/02/01 12:17:41;;;;;;;7.60;4.50;;;9.60;99.90;;;;;;5055159;28;20079;-89
2023/02/01 12:20:13;;;;;;;5.68;3.90;;;9.70;99.90;;;;;;5054301;28;20040;-88
2023/02/01 12:23:09;;;;;;;8.65;7.22;;;9.70;99.90;;;;;;5037211;28;20025;-88
2023/02/01 12:25:59;;;;;;;8.27;5.97;;;9.50;99.90;;;;;;5054973;28;20033;-89
2023/02/01 12:28:28;;;;;;;7.82;4.47;;;9.60;99.90;;;;;;5054799;28;20481;-89
2023/02/01 12:30:59;;;;;;;8.32;4.38;;;9.70;99.90;;;;;;5037326;28;20059;-89
2023/02/01 12:33:43;;;;;;;7.90;5.10;;;9.40;99.90;;;;;;5022171;28;20516;-89
2023/02/01 12:36:09;;;;;;;10.38;7.50;;;9.30;99.90;;;;;;5016744;28;20115;-89
2023/02/01 12:38:52;;;;;;;9.82;7.63;;;9.40;99.90;;;;;;5034841;28;20064;-89
2023/02/01 12:41:43;;;;;;;14.80;5.40;;;9.50;99.90;;;;;;5034949;28;20033;-89
2023/02/01 12:44:24;;;;;;;13.07;9.15;;;9.60;99.90;;;;;;5035034;28;20100;-88
2023/02/01 12:46:56;;;;;;;10.50;5.47;;;9.80;99.90;;;;;;5034695;28;20116;-88
2023/02/01 12:49:50;;;;;;;15.98;9.55;;;9.70;99.90;;;;;;5035004;28;20080;-89
2023/02/01 12:52:26;;;;;;;17.88;12.98;;;9.90;99.90;;;;;;4953909;29;20510;-89
2023/02/01 12:55:38;;;;;;;30.17;19.83;;;10.00;99.90;;;;;;4954334;29;20024;-88
2023/02/01 12:58:19;;;;;;;28.52;18.67;;;9.80;99.90;;;;;;4896900;29;20044;-89
2023/02/01 13:00:54;;;;;;;9.13;4.82;;;9.80;99.90;;;;;;4881446;29;20049;-89
2023/02/01 13:03:50;;;;;;;8.98;6.00;;;9.80;99.90;;;;;;4897074;29;20084;-88
2023/02/01 13:06:52;;;;;;;11.05;8.45;;;10.00;99.90;;;;;;4897070;29;20032;-88
2023/02/01 13:09:20;;;;;;;34.63;23.25;;;9.90;99.90;;;;;;4859608;29;20174;-88
2023/02/01 13:11:48;;;;;;;27.77;20.00;;;9.70;99.90;;;;;;4859383;29;20041;-89
2023/02/01 13:14:32;;;;;;;11.30;6.90;;;9.70;99.90;;;;;;4859540;29;20030;-88
2023/02/01 13:17:05;;;;;;;10.77;4.72;;;9.90;99.90;;;;;;4859958;29;20049;-88
2023/02/01 13:19:50;;;;;;;7.13;3.13;;;10.60;99.90;;;;;;4843582;29;20126;-89
2023/02/01 13:22:29;;;;;;;6.53;3.78;;;10.90;99.90;;;;;;4859781;29;20446;-88
2023/02/01 13:25:05;;;;;;;9.73;5.68;;;10.70;99.90;;;;;;4859195;29;20499;-89
2023/02/01 13:27:32;;;;;;;13.98;6.43;;;10.70;99.90;;;;;;4844380;29;20065;-89
2023/02/01 13:30:03;;;;;;;7.85;4.22;;;10.50;99.90;;;;;;4908309;29;20107;-89
2023/02/01 13:32:31;;;;;;;8.55;4.95;;;10.60;99.90;;;;;;4964788;28;20166;-89
2023/02/01 13:35:27;;;;;;;8.68;3.90;;;10.70;99.90;;;;;;4991694;28;20039;-88